Time;durP1;ratioP1;P1;durP2;ratioP2;P2;SDS_P1;SDS_P2;PMS_P1;PMS_P2;Temp;Humidity;BMP_temperature;BMP_pressure;BME280_temperature;BME280_humidity;BME280_pressure;Samples;Min_cycle;Max_cycle;Signal;HPM_P1;HPM_P2
2022/12/10 00:01:21;;;;;;;94.27;40.33;;;1.20;99.90;;;;;;4978312;28;20181;-74
2022/12/10 00:03:51;;;;;;;93.73;40.03;;;1.10;99.90;;;;;;5001297;28;20193;-74
2022/12/10 00:06:21;;;;;;;88.70;40.53;;;1.20;99.90;;;;;;4984034;28;20220;-81
2022/12/10 00:08:48;;;;;;;90.20;38.80;;;1.10;99.90;;;;;;4990087;28;20195;-79
2022/12/10 00:11:21;;;;;;;87.80;38.80;;;1.00;99.90;;;;;;4988654;28;20209;-79
2022/12/10 00:13:48;;;;;;;102.33;42.00;;;0.90;99.90;;;;;;5002118;28;20196;-77
2022/12/10 00:16:21;;;;;;;103.33;41.67;;;0.90;99.90;;;;;;4995435;28;20216;-76
2022/12/10 00:18:52;;;;;;;102.23;42.50;;;0.90;99.90;;;;;;4995893;28;20211;-80
2022/12/10 00:21:33;;;;;;;101.07;41.67;;;0.90;99.90;;;;;;4984506;28;20227;-74
2022/12/10 00:24:02;;;;;;;96.97;41.07;;;0.90;99.90;;;;;;4977681;28;20720;-75
2022/12/10 00:26:32;;;;;;;97.33;42.10;;;0.90;99.90;;;;;;4997233;28;20261;-75
2022/12/10 00:29:01;;;;;;;99.60;42.37;;;0.90;99.90;;;;;;4995376;28;20215;-78
2022/12/10 00:31:31;;;;;;;97.27;41.67;;;0.90;99.90;;;;;;4987115;28;20202;-73
2022/12/10 00:34:01;;;;;;;99.87;41.83;;;0.90;99.90;;;;;;5010299;28;20192;-76
2022/12/10 00:36:35;;;;;;;98.60;41.13;;;0.90;99.90;;;;;;4991654;28;20302;-77
2022/12/10 00:39:02;;;;;;;95.43;40.67;;;0.90;99.90;;;;;;4997113;28;20203;-75
2022/12/10 00:41:30;;;;;;;104.03;40.47;;;0.90;99.90;;;;;;4995124;28;20195;-73
2022/12/10 00:43:57;;;;;;;96.80;41.37;;;0.90;99.90;;;;;;4995084;28;20262;-74
2022/12/10 00:46:24;;;;;;;101.87;41.17;;;0.80;99.90;;;;;;4992160;28;20236;-74
2022/12/10 00:48:51;;;;;;;98.43;41.70;;;0.90;99.90;;;;;;5012778;28;20603;-73
2022/12/10 00:51:23;;;;;;;91.37;39.63;;;0.90;99.90;;;;;;4997129;28;20253;-74
2022/12/10 00:53:52;;;;;;;102.17;41.03;;;0.90;99.90;;;;;;4995758;28;20641;-74
2022/12/10 00:56:22;;;;;;;99.90;41.00;;;1.00;99.90;;;;;;4975754;28;20303;-73
2022/12/10 00:58:49;;;;;;;91.73;38.97;;;1.00;99.90;;;;;;4986910;28;20235;-74
2022/12/10 01:01:39;;;;;;;98.10;40.03;;;1.00;99.90;;;;;;4983086;28;20669;-72
2022/12/10 01:04:11;;;;;;;93.00;39.20;;;1.00;99.90;;;;;;4996635;28;20691;-78
2022/12/10 01:06:46;;;;;;;93.47;40.20;;;1.00;99.90;;;;;;5006215;28;20274;-75
2022/12/10 01:09:15;;;;;;;95.43;39.63;;;0.90;99.90;;;;;;4983666;28;20617;-77
2022/12/10 01:11:44;;;;;;;96.00;39.60;;;0.90;99.90;;;;;;4991804;28;20205;-78
2022/12/10 01:14:17;;;;;;;101.47;41.73;;;0.80;99.90;;;;;;4991261;28;20653;-76
2022/12/10 01:16:44;;;;;;;95.13;40.83;;;0.90;99.90;;;;;;4995970;28;20202;-79
2022/12/10 01:19:12;;;;;;;92.27;39.40;;;1.00;99.90;;;;;;4993023;28;20196;-75
2022/12/10 01:21:39;;;;;;;98.77;40.50;;;1.00;99.90;;;;;;4998111;28;20264;-75
2022/12/10 01:24:06;;;;;;;96.80;39.57;;;1.10;99.90;;;;;;4994547;28;20200;-80
2022/12/10 01:26:34;;;;;;;98.07;40.00;;;1.00;99.90;;;;;;4989922;28;20650;-77
2022/12/10 01:29:03;;;;;;;93.87;40.10;;;1.00;99.90;;;;;;4981295;28;20212;-78
2022/12/10 01:31:32;;;;;;;100.03;40.77;;;1.00;99.90;;;;;;4996333;28;20200;-79
2022/12/10 01:34:00;;;;;;;100.10;39.37;;;1.00;99.90;;;;;;4996389;28;20196;-78
2022/12/10 01:36:34;;;;;;;99.40;39.17;;;0.90;99.90;;;;;;4996348;28;20301;-75
2022/12/10 01:39:04;;;;;;;91.17;38.27;;;0.90;99.90;;;;;;4996183;28;20632;-75
2022/12/10 01:41:34;;;;;;;95.77;39.50;;;0.80;99.90;;;;;;4996433;28;20543;-74
2022/12/10 01:44:08;;;;;;;98.57;39.83;;;1.00;99.90;;;;;;5013672;28;20258;-75
2022/12/10 01:46:45;;;;;;;93.00;38.67;;;1.00;99.90;;;;;;5013491;28;20540;-75
2022/12/10 01:49:14;;;;;;;86.37;37.30;;;1.00;99.90;;;;;;4996274;28;20205;-75
2022/12/10 01:51:44;;;;;;;92.47;38.57;;;0.90;99.90;;;;;;4996164;28;20192;-73
2022/12/10 01:54:19;;;;;;;95.00;37.90;;;0.90;99.90;;;;;;5013573;28;20200;-75
2022/12/10 01:56:59;;;;;;;93.40;38.17;;;0.90;99.90;;;;;;5013229;28;20203;-72
2022/12/10 01:59:28;;;;;;;89.10;36.37;;;0.90;99.90;;;;;;4995248;28;20207;-78
2022/12/10 02:02:11;;;;;;;91.40;36.40;;;0.90;99.90;;;;;;4973972;28;20323;-75
2022/12/10 02:05:21;;;;;;;86.37;35.87;;;0.70;99.90;;;;;;4974265;28;20209;-78
2022/12/10 02:07:51;;;;;;;77.73;34.43;;;0.90;99.90;;;;;;4993942;28;20215;-76
2022/12/10 02:10:43;;;;;;;81.60;34.80;;;0.90;99.90;;;;;;4993899;28;20205;-77
2022/12/10 02:13:25;;;;;;;80.50;34.90;;;0.90;99.90;;;;;;4987353;28;20194;-78
2022/12/10 02:16:02;;;;;;;82.93;34.50;;;0.90;99.90;;;;;;4972818;28;20224;-77
2022/12/10 02:18:41;;;;;;;84.67;34.80;;;0.90;99.90;;;;;;4990466;28;20192;-79
2022/12/10 02:21:18;;;;;;;81.07;33.70;;;0.90;99.90;;;;;;4979642;28;20275;-78
2022/12/10 02:23:51;;;;;;;83.43;32.80;;;0.90;99.90;;;;;;4993601;28;20207;-79
2022/12/10 02:26:41;;;;;;;74.50;31.97;;;1.00;99.90;;;;;;4993602;28;20587;-79
2022/12/10 02:29:13;;;;;;;75.17;31.30;;;0.90;99.90;;;;;;4992633;28;20200;-74
2022/12/10 02:32:00;;;;;;;75.27;31.60;;;0.90;99.90;;;;;;4982960;28;20208;-75
2022/12/10 02:34:31;;;;;;;72.57;30.77;;;0.80;99.90;;;;;;4985089;28;20201;-73
2022/12/10 02:37:07;;;;;;;72.20;29.67;;;0.90;99.90;;;;;;4976646;28;20279;-74
2022/12/10 02:39:42;;;;;;;65.60;28.30;;;0.90;99.90;;;;;;4992011;28;20200;-75
2022/12/10 02:42:11;;;;;;;69.53;27.87;;;0.70;99.90;;;;;;4979217;28;20259;-74
2022/12/10 02:44:41;;;;;;;68.53;28.03;;;0.80;99.90;;;;;;4990800;28;20700;-79
2022/12/10 02:47:10;;;;;;;67.20;27.50;;;0.70;99.90;;;;;;4991886;28;20263;-75
2022/12/10 02:49:39;;;;;;;61.23;27.53;;;0.80;99.90;;;;;;4992172;28;20193;-76
2022/12/10 02:52:12;;;;;;;68.53;28.50;;;0.80;99.90;;;;;;4993353;28;20623;-74
2022/12/10 02:54:45;;;;;;;65.93;27.77;;;0.70;99.90;;;;;;4975853;28;20201;-75
2022/12/10 02:57:35;;;;;;;67.83;27.87;;;0.70;99.90;;;;;;4991865;28;20198;-75
2022/12/10 03:00:16;;;;;;;71.37;27.13;;;0.70;99.90;;;;;;4992076;28;20208;-74
2022/12/10 03:03:03;;;;;;;65.90;26.63;;;0.80;99.90;;;;;;4982354;28;20224;-74
2022/12/10 03:05:44;;;;;;;65.07;27.47;;;0.70;99.90;;;;;;4975830;28;20234;-74
2022/12/10 03:08:26;;;;;;;69.83;28.60;;;0.80;99.90;;;;;;4975545;28;20195;-75
2022/12/10 03:11:10;;;;;;;66.77;27.83;;;0.80;99.90;;;;;;4991840;28;20197;-75
2022/12/10 03:14:11;;;;;;;67.97;27.50;;;0.70;99.90;;;;;;4966789;28;20205;-76
2022/12/10 03:16:46;;;;;;;71.67;28.60;;;0.70;99.90;;;;;;4956101;28;20222;-76
2022/12/10 03:19:19;;;;;;;68.80;27.90;;;0.70;99.90;;;;;;4971535;28;20196;-77
2022/12/10 03:21:49;;;;;;;65.83;27.57;;;0.70;99.90;;;;;;4959027;28;20269;-77
2022/12/10 03:24:18;;;;;;;65.20;27.07;;;0.70;99.90;;;;;;4973852;28;20622;-77
2022/12/10 03:26:48;;;;;;;62.10;26.77;;;0.70;99.90;;;;;;4962041;28;20652;-77
2022/12/10 03:29:20;;;;;;;55.07;24.87;;;0.60;99.90;;;;;;4959796;28;20227;-78
2022/12/10 03:31:50;;;;;;;61.33;25.77;;;0.60;99.90;;;;;;4966991;28;20213;-78
2022/12/10 03:34:17;;;;;;;60.40;25.60;;;0.60;99.90;;;;;;4977108;28;20276;-77
2022/12/10 03:36:45;;;;;;;58.73;24.77;;;0.60;99.90;;;;;;4977611;28;20236;-73
2022/12/10 03:39:13;;;;;;;63.83;25.50;;;0.60;99.90;;;;;;4978969;28;20200;-74
2022/12/10 03:41:40;;;;;;;57.93;24.97;;;0.60;99.90;;;;;;4969775;28;20592;-73
2022/12/10 03:44:07;;;;;;;66.30;26.53;;;0.70;99.90;;;;;;4990101;28;20207;-73
2022/12/10 03:46:34;;;;;;;61.63;24.77;;;0.70;99.90;;;;;;4996141;28;20265;-72
2022/12/10 03:49:02;;;;;;;60.67;25.50;;;0.70;99.90;;;;;;4979235;28;20267;-73
2022/12/10 03:51:29;;;;;;;60.53;26.87;;;0.70;99.90;;;;;;4980717;28;20193;-73
2022/12/10 03:53:56;;;;;;;60.47;25.43;;;0.70;99.90;;;;;;4970896;28;20296;-71
2022/12/10 03:56:23;;;;;;;64.67;27.57;;;0.80;99.90;;;;;;4978475;28;20204;-71
2022/12/10 03:58:50;;;;;;;62.37;26.23;;;0.70;99.90;;;;;;4975915;28;20310;-72
2022/12/10 04:01:17;;;;;;;60.50;26.10;;;0.70;99.90;;;;;;4979329;28;20201;-71
2022/12/10 04:03:45;;;;;;;63.37;26.47;;;0.70;99.90;;;;;;4998079;28;20199;-71
2022/12/10 04:06:18;;;;;;;65.67;26.70;;;0.60;99.90;;;;;;4997822;28;20320;-73
2022/12/10 04:08:45;;;;;;;62.20;26.13;;;0.60;99.90;;;;;;4981863;28;20234;-72
2022/12/10 04:11:13;;;;;;;60.03;24.20;;;0.60;99.90;;;;;;4992627;28;20200;-78
2022/12/10 04:16:27;;;;;;;58.13;23.90;;;0.60;99.90;;;;;;4997747;28;20227;-73
2022/12/10 04:18:59;;;;;;;58.83;23.63;;;0.60;99.90;;;;;;4995997;28;20207;-72
2022/12/10 04:27:11;;;;;;;53.77;22.23;;;0.60;99.90;;;;;;4982101;28;20212;-74
2022/12/10 04:29:39;;;;;;;61.90;24.33;;;0.50;99.90;;;;;;4988815;28;20193;-78
2022/12/10 04:32:06;;;;;;;59.03;24.67;;;0.50;99.90;;;;;;5008167;28;20602;-75
2022/12/10 04:34:33;;;;;;;53.97;24.07;;;0.50;99.90;;;;;;5013764;28;20234;-77
2022/12/10 04:37:01;;;;;;;61.90;25.33;;;0.50;99.90;;;;;;5013873;28;20198;-79
2022/12/10 04:39:28;;;;;;;53.70;23.20;;;0.50;99.90;;;;;;4997386;28;20196;-79
2022/12/10 04:41:55;;;;;;;64.00;25.73;;;0.50;99.90;;;;;;4973871;28;20302;-78
2022/12/10 04:44:22;;;;;;;64.87;25.50;;;0.50;99.90;;;;;;4997586;28;20657;-75
2022/12/10 04:46:49;;;;;;;59.43;25.30;;;0.50;99.90;;;;;;4997071;28;20763;-75
2022/12/10 04:49:17;;;;;;;59.77;23.90;;;0.50;99.90;;;;;;5015403;28;20533;-73
2022/12/10 04:51:44;;;;;;;61.03;24.50;;;0.50;99.90;;;;;;4997469;28;20200;-74
2022/12/10 04:54:12;;;;;;;56.03;23.23;;;0.50;99.90;;;;;;4997380;28;20238;-74
2022/12/10 04:56:39;;;;;;;62.10;24.13;;;0.50;99.90;;;;;;4997141;28;20228;-75
2022/12/10 04:59:07;;;;;;;54.90;22.97;;;0.60;99.90;;;;;;4997464;28;20246;-74
2022/12/10 05:01:34;;;;;;;55.90;22.23;;;0.60;99.90;;;;;;4993803;28;20228;-75
2022/12/10 05:04:03;;;;;;;56.13;22.63;;;0.50;99.90;;;;;;4994087;28;20199;-74
2022/12/10 05:06:31;;;;;;;51.27;21.77;;;0.50;99.90;;;;;;4993657;28;20231;-74
2022/12/10 05:08:58;;;;;;;54.10;22.67;;;0.50;99.90;;;;;;4993826;28;20207;-74
2022/12/10 05:11:27;;;;;;;53.67;22.47;;;0.60;99.90;;;;;;4988430;28;20206;-76
2022/12/10 05:13:55;;;;;;;56.33;21.53;;;0.60;99.90;;;;;;4974266;28;20190;-75
2022/12/10 05:16:24;;;;;;;53.03;20.70;;;0.60;99.90;;;;;;4974077;28;20204;-76
2022/12/10 05:18:53;;;;;;;50.70;20.20;;;0.60;99.90;;;;;;4990634;28;20210;-75
2022/12/10 05:21:21;;;;;;;50.40;20.57;;;0.70;99.90;;;;;;4974253;28;20185;-75
2022/12/10 05:23:52;;;;;;;52.10;20.47;;;0.60;99.90;;;;;;4974163;28;20204;-74
2022/12/10 05:26:21;;;;;;;49.60;20.20;;;0.60;99.90;;;;;;4975007;28;20209;-75
2022/12/10 05:28:53;;;;;;;46.37;19.33;;;0.60;99.90;;;;;;4975377;28;20228;-74
2022/12/10 05:31:26;;;;;;;48.00;19.10;;;0.60;99.90;;;;;;4974520;28;20644;-74
2022/12/10 05:33:54;;;;;;;47.67;19.57;;;0.60;99.90;;;;;;4973974;28;20555;-75
2022/12/10 05:36:23;;;;;;;44.43;18.80;;;0.60;99.90;;;;;;4987127;28;20215;-75
2022/12/10 05:38:51;;;;;;;44.43;18.30;;;0.60;99.90;;;;;;4993798;28;20236;-75
2022/12/10 05:41:23;;;;;;;48.10;19.30;;;0.60;99.90;;;;;;4979758;28;20208;-80
2022/12/10 05:43:53;;;;;;;48.60;18.73;;;0.60;99.90;;;;;;4975359;28;20193;-77
2022/12/10 05:46:22;;;;;;;48.50;17.93;;;0.70;99.90;;;;;;4977010;28;20205;-81
2022/12/10 05:48:50;;;;;;;47.97;18.33;;;0.70;99.90;;;;;;4974780;28;20598;-75
2022/12/10 05:51:21;;;;;;;43.47;17.67;;;0.60;99.90;;;;;;4975078;28;20201;-76
2022/12/10 05:53:48;;;;;;;45.00;17.50;;;0.60;99.90;;;;;;4977983;28;20722;-74
2022/12/10 05:56:18;;;;;;;39.73;15.93;;;0.50;99.90;;;;;;4992715;28;20240;-74
2022/12/10 05:58:47;;;;;;;46.40;17.70;;;0.60;99.90;;;;;;4993295;28;20196;-75
2022/12/10 06:01:20;;;;;;;39.60;16.50;;;0.50;99.90;;;;;;4993810;28;20191;-76
2022/12/10 06:03:49;;;;;;;47.83;17.63;;;0.50;99.90;;;;;;5012588;28;20261;-74
2022/12/10 06:06:25;;;;;;;47.67;18.20;;;0.50;99.90;;;;;;4996389;28;20255;-76
2022/12/10 06:08:52;;;;;;;43.10;16.77;;;0.50;99.90;;;;;;5013725;28;20190;-73
2022/12/10 06:11:20;;;;;;;42.83;17.63;;;0.60;99.90;;;;;;4996053;28;20208;-78
2022/12/10 06:13:47;;;;;;;42.63;17.17;;;0.60;99.90;;;;;;5013591;28;20588;-74
2022/12/10 06:16:21;;;;;;;46.23;18.27;;;0.60;99.90;;;;;;4995939;28;20657;-74
2022/12/10 06:18:49;;;;;;;45.43;17.10;;;0.60;99.90;;;;;;4995899;28;20218;-76
2022/12/10 06:21:16;;;;;;;42.67;16.77;;;0.60;99.90;;;;;;5013740;28;20184;-75
2022/12/10 06:23:45;;;;;;;43.43;17.17;;;0.70;99.90;;;;;;5012334;28;20208;-73
2022/12/10 06:26:19;;;;;;;45.70;17.40;;;0.70;99.90;;;;;;4995297;28;20238;-78
2022/12/10 06:28:48;;;;;;;41.93;16.77;;;0.70;99.90;;;;;;4996139;28;20249;-77
2022/12/10 06:31:15;;;;;;;45.97;17.20;;;0.70;99.90;;;;;;4995679;28;20195;-74
2022/12/10 06:33:43;;;;;;;40.90;17.10;;;0.60;99.90;;;;;;4996070;28;20196;-75
2022/12/10 06:36:12;;;;;;;43.67;17.97;;;0.60;99.90;;;;;;4995504;28;20193;-74
2022/12/10 06:38:39;;;;;;;41.83;17.60;;;0.60;99.90;;;;;;4995904;28;20195;-74
2022/12/10 06:41:08;;;;;;;41.63;17.10;;;0.60;99.90;;;;;;4995610;28;20242;-75
2022/12/10 06:43:36;;;;;;;45.87;18.40;;;0.60;99.90;;;;;;4995674;28;20219;-75
2022/12/10 06:46:08;;;;;;;43.77;17.70;;;0.70;99.90;;;;;;4979383;28;20294;-74
2022/12/10 06:48:36;;;;;;;47.47;17.77;;;0.60;99.90;;;;;;5011930;28;20196;-76
2022/12/10 06:51:04;;;;;;;44.80;17.73;;;0.60;99.90;;;;;;4995646;28;20193;-78
2022/12/10 06:53:32;;;;;;;46.70;18.60;;;0.60;99.90;;;;;;4995902;28;20195;-79
2022/12/10 06:56:01;;;;;;;46.30;17.73;;;0.50;99.90;;;;;;5012984;28;20204;-79
2022/12/10 06:58:29;;;;;;;49.70;18.67;;;0.50;99.90;;;;;;4995808;28;20210;-73
2022/12/10 07:01:07;;;;;;;46.27;17.90;;;0.60;99.90;;;;;;5016305;28;20291;-77
2022/12/10 07:03:34;;;;;;;47.70;18.53;;;0.60;99.90;;;;;;4999489;28;20253;-74
2022/12/10 07:06:03;;;;;;;49.97;18.33;;;0.70;99.90;;;;;;5015675;28;20203;-74
2022/12/10 07:08:30;;;;;;;44.87;17.87;;;0.60;99.90;;;;;;4999796;28;20630;-74
2022/12/10 07:10:57;;;;;;;50.27;19.13;;;0.60;99.90;;;;;;5016862;28;20605;-74
2022/12/10 07:13:25;;;;;;;49.07;19.13;;;0.70;99.90;;;;;;4999385;28;20257;-75
2022/12/10 07:15:56;;;;;;;48.53;18.33;;;0.70;99.90;;;;;;5015976;28;20228;-73
2022/12/10 07:18:24;;;;;;;50.07;18.43;;;0.80;99.90;;;;;;4987424;28;20208;-75
2022/12/10 07:20:51;;;;;;;46.90;18.37;;;0.80;99.90;;;;;;4999213;28;20291;-74
2022/12/10 07:23:19;;;;;;;48.77;18.77;;;0.80;99.90;;;;;;4999096;28;20283;-74
2022/12/10 07:25:46;;;;;;;51.13;19.30;;;0.80;99.90;;;;;;5016396;28;20184;-74
2022/12/10 07:28:13;;;;;;;53.97;19.30;;;0.90;99.90;;;;;;4999032;28;20726;-74
2022/12/10 07:30:40;;;;;;;54.37;19.73;;;0.90;99.90;;;;;;5015232;28;20210;-75
2022/12/10 07:33:07;;;;;;;54.03;19.87;;;0.80;99.90;;;;;;4982897;28;20296;-74
2022/12/10 07:35:37;;;;;;;55.63;18.77;;;0.80;99.90;;;;;;5016638;28;20607;-75
2022/12/10 07:38:04;;;;;;;55.27;19.83;;;0.80;99.90;;;;;;4998788;28;20290;-75
2022/12/10 07:40:31;;;;;;;55.70;19.03;;;0.70;99.90;;;;;;4998692;28;20208;-74
2022/12/10 07:42:58;;;;;;;60.07;20.47;;;0.70;99.90;;;;;;5016538;28;20230;-77
2022/12/10 07:45:25;;;;;;;52.30;18.40;;;0.70;99.90;;;;;;4998567;28;20548;-78
2022/12/10 07:47:52;;;;;;;55.27;19.23;;;0.80;99.90;;;;;;4993980;28;20625;-75
2022/12/10 07:50:19;;;;;;;52.37;19.13;;;0.80;99.90;;;;;;4993146;28;20212;-75
2022/12/10 07:52:45;;;;;;;54.33;18.67;;;0.80;99.90;;;;;;5009577;28;20229;-73
2022/12/10 07:55:12;;;;;;;55.07;19.47;;;0.70;99.90;;;;;;4998260;28;20198;-73
2022/12/10 07:57:39;;;;;;;59.60;20.03;;;0.80;99.90;;;;;;4998444;28;20196;-74
2022/12/10 08:00:07;;;;;;;58.60;18.97;;;0.80;99.90;;;;;;4998511;28;20207;-78
2022/12/10 08:02:35;;;;;;;57.60;19.60;;;0.80;99.90;;;;;;5003365;28;20263;-75
2022/12/10 08:05:02;;;;;;;54.17;18.50;;;0.90;99.90;;;;;;5011237;28;20295;-73
2022/12/10 08:07:29;;;;;;;60.90;19.13;;;0.90;99.90;;;;;;4994958;28;20226;-73
2022/12/10 08:09:56;;;;;;;60.37;19.60;;;0.90;99.90;;;;;;4994787;28;20208;-72
2022/12/10 08:12:24;;;;;;;52.97;17.83;;;0.90;99.90;;;;;;4994976;28;20205;-74
2022/12/10 08:14:51;;;;;;;56.10;18.47;;;0.80;99.90;;;;;;4994651;28;20231;-76
2022/12/10 08:17:18;;;;;;;58.13;19.00;;;0.80;99.90;;;;;;4980234;28;20194;-74
2022/12/10 08:19:45;;;;;;;56.40;18.20;;;0.80;99.90;;;;;;4959278;28;20201;-73
2022/12/10 08:22:12;;;;;;;50.40;18.23;;;0.80;99.90;;;;;;4977061;28;20288;-75
2022/12/10 08:24:39;;;;;;;53.43;18.67;;;0.80;99.90;;;;;;4978465;28;20296;-73
2022/12/10 08:27:06;;;;;;;55.07;19.13;;;0.80;99.90;;;;;;4995600;28;20209;-74
2022/12/10 08:29:33;;;;;;;60.13;19.90;;;0.80;99.90;;;;;;4978339;28;20204;-73
2022/12/10 08:32:00;;;;;;;53.77;17.97;;;0.90;99.90;;;;;;4977990;28;20204;-73
2022/12/10 08:34:27;;;;;;;51.20;17.40;;;0.90;99.90;;;;;;4994648;28;20193;-76
2022/12/10 08:36:54;;;;;;;49.93;17.80;;;0.90;99.90;;;;;;5004408;28;20204;-76
2022/12/10 08:39:21;;;;;;;55.30;18.67;;;0.90;99.90;;;;;;4994509;28;20255;-72
2022/12/10 08:41:48;;;;;;;56.20;17.97;;;0.90;99.90;;;;;;4994385;28;20224;-73
2022/12/10 08:44:15;;;;;;;54.30;18.20;;;0.80;99.90;;;;;;4994229;28;20287;-75
2022/12/10 08:46:42;;;;;;;55.03;17.70;;;0.80;99.90;;;;;;4994119;28;20242;-78
2022/12/10 08:49:09;;;;;;;54.03;18.13;;;0.90;99.90;;;;;;4984816;28;20622;-77
2022/12/10 08:51:36;;;;;;;53.63;18.00;;;0.90;99.90;;;;;;4994130;28;20217;-75
2022/12/10 08:54:03;;;;;;;48.93;17.60;;;1.00;99.90;;;;;;4977939;28;20205;-78
2022/12/10 08:56:31;;;;;;;51.87;16.97;;;1.00;99.90;;;;;;4977609;28;20204;-79
2022/12/10 08:58:58;;;;;;;52.17;18.13;;;1.00;99.90;;;;;;4994877;28;20230;-78
2022/12/10 09:01:25;;;;;;;49.93;17.63;;;1.00;99.90;;;;;;4980438;28;20204;-78
2022/12/10 09:03:53;;;;;;;54.13;17.30;;;1.00;99.90;;;;;;4997754;28;20250;-80
2022/12/10 09:06:26;;;;;;;46.77;17.17;;;1.10;99.90;;;;;;4997252;28;20208;-79
2022/12/10 09:08:53;;;;;;;51.97;18.63;;;1.00;99.90;;;;;;4997471;28;20220;-76
2022/12/10 09:11:24;;;;;;;51.80;17.90;;;1.00;99.90;;;;;;4997133;28;20291;-78
2022/12/10 09:13:51;;;;;;;51.10;18.00;;;1.00;99.90;;;;;;4996947;28;20208;-73
2022/12/10 09:16:19;;;;;;;55.50;18.20;;;1.10;99.90;;;;;;4997480;28;20220;-77
2022/12/10 09:18:46;;;;;;;65.67;18.93;;;1.10;99.90;;;;;;4994865;28;20189;-74
2022/12/10 09:21:15;;;;;;;56.20;18.03;;;1.10;99.90;;;;;;4977334;28;20207;-73
2022/12/10 09:23:43;;;;;;;48.57;17.60;;;1.10;99.90;;;;;;4995840;28;20343;-77
2022/12/10 09:26:15;;;;;;;54.07;17.27;;;1.10;99.90;;;;;;4996492;28;20210;-73
2022/12/10 09:28:43;;;;;;;58.53;18.30;;;1.10;99.90;;;;;;5013338;28;20591;-74
2022/12/10 09:31:12;;;;;;;54.23;18.17;;;1.10;99.90;;;;;;5013053;28;20275;-75
2022/12/10 09:33:45;;;;;;;50.63;16.97;;;1.20;99.90;;;;;;5014588;28;20279;-75
2022/12/10 09:36:13;;;;;;;52.97;18.03;;;1.20;99.90;;;;;;5000017;28;20189;-76
2022/12/10 09:38:43;;;;;;;48.67;17.50;;;1.30;99.90;;;;;;5002193;28;20189;-77
2022/12/10 09:41:31;;;;;;;50.67;17.37;;;1.30;99.90;;;;;;4999998;28;20185;-77
2022/12/10 09:44:14;;;;;;;49.43;16.50;;;1.20;99.90;;;;;;4985614;28;20208;-79
2022/12/10 09:46:58;;;;;;;52.20;17.33;;;1.20;99.90;;;;;;4987190;28;20192;-72
2022/12/10 09:49:44;;;;;;;50.60;16.80;;;1.20;99.90;;;;;;5000752;28;20196;-70
2022/12/10 09:52:14;;;;;;;49.90;16.73;;;1.20;99.90;;;;;;4983823;28;20195;-82
2022/12/10 09:54:48;;;;;;;46.20;17.17;;;1.20;99.90;;;;;;4981827;28;20196;-72
2022/12/10 09:57:30;;;;;;;50.70;17.43;;;1.10;99.90;;;;;;4997261;28;20231;-76
2022/12/10 10:00:15;;;;;;;53.83;17.47;;;1.20;99.90;;;;;;4994268;28;20311;-79
2022/12/10 10:02:42;;;;;;;49.00;17.67;;;1.20;99.90;;;;;;4973456;28;20260;-82
2022/12/10 10:05:09;;;;;;;48.97;16.67;;;1.20;99.90;;;;;;4979182;28;20203;-79
2022/12/10 10:07:44;;;;;;;50.93;17.27;;;1.20;99.90;;;;;;4993753;28;20258;-80
2022/12/10 10:10:28;;;;;;;46.77;17.20;;;1.30;99.90;;;;;;4993377;28;20191;-78
2022/12/10 10:13:18;;;;;;;48.23;17.53;;;1.30;99.90;;;;;;4993251;28;20201;-81
2022/12/10 10:15:46;;;;;;;49.17;16.97;;;1.30;99.90;;;;;;4993991;28;20219;-76
2022/12/10 10:18:21;;;;;;;47.63;16.57;;;1.30;99.90;;;;;;4994559;28;20229;-77
2022/12/10 10:20:51;;;;;;;48.43;17.73;;;1.30;99.90;;;;;;4992658;28;20288;-73
2022/12/10 10:23:19;;;;;;;46.43;17.20;;;1.30;99.90;;;;;;4992977;28;20553;-74
2022/12/10 10:25:46;;;;;;;48.87;17.63;;;1.30;99.90;;;;;;4993720;28;20219;-73
2022/12/10 10:28:21;;;;;;;48.20;17.43;;;1.30;99.90;;;;;;4990379;28;20227;-77
2022/12/10 10:30:50;;;;;;;50.80;17.93;;;1.30;99.90;;;;;;4992527;28;20203;-74
2022/12/10 10:33:17;;;;;;;46.63;17.27;;;1.30;99.90;;;;;;4992310;28;20200;-74
2022/12/10 10:35:46;;;;;;;44.00;16.33;;;1.30;99.90;;;;;;4976364;28;20288;-73
2022/12/10 10:38:22;;;;;;;45.40;17.37;;;1.40;99.90;;;;;;4973021;28;20248;-74
2022/12/10 10:40:56;;;;;;;41.47;15.57;;;1.40;99.90;;;;;;4975733;28;20205;-73
2022/12/10 10:43:31;;;;;;;43.03;16.50;;;1.50;99.90;;;;;;4983945;28;20203;-74
2022/12/10 10:46:14;;;;;;;45.07;17.60;;;1.50;99.90;;;;;;4979244;28;20196;-76
2022/12/10 10:48:41;;;;;;;48.93;16.80;;;1.50;99.90;;;;;;4981410;28;20319;-73
2022/12/10 10:51:16;;;;;;;45.27;17.73;;;1.60;99.90;;;;;;4976329;28;20289;-75
2022/12/10 10:53:46;;;;;;;45.47;16.97;;;1.60;99.90;;;;;;4983436;28;20206;-76
2022/12/10 10:56:17;;;;;;;41.70;16.50;;;1.60;99.90;;;;;;4992130;28;20197;-81
2022/12/10 10:58:56;;;;;;;43.23;15.87;;;1.70;99.90;;;;;;4992039;28;20193;-80
2022/12/10 11:01:26;;;;;;;42.47;15.90;;;1.60;99.90;;;;;;4995438;28;20239;-81
2022/12/10 11:03:58;;;;;;;42.73;16.77;;;1.70;99.90;;;;;;4995447;28;20289;-83
2022/12/10 11:06:25;;;;;;;40.80;16.23;;;1.60;99.90;;;;;;4983645;28;20197;-82
2022/12/10 11:08:57;;;;;;;40.03;15.63;;;1.70;99.90;;;;;;4985261;28;20222;-81
2022/12/10 11:11:40;;;;;;;41.40;16.27;;;1.50;99.90;;;;;;4991912;28;20196;-79
2022/12/10 11:14:15;;;;;;;41.53;15.73;;;1.50;99.90;;;;;;4985068;28;20205;-83
2022/12/10 11:16:42;;;;;;;44.30;16.43;;;1.50;99.90;;;;;;4985489;28;20268;-82
2022/12/10 11:19:23;;;;;;;43.53;16.27;;;1.50;99.90;;;;;;4987496;28;20191;-83
2022/12/10 11:21:50;;;;;;;44.40;17.20;;;1.50;99.90;;;;;;4982931;28;20193;-83
2022/12/10 11:24:19;;;;;;;43.07;16.87;;;1.50;99.90;;;;;;4983991;28;20201;-79
2022/12/10 11:26:57;;;;;;;41.07;15.73;;;1.50;99.90;;;;;;5001265;28;20201;-76
2022/12/10 11:29:36;;;;;;;41.47;15.77;;;1.50;99.90;;;;;;4975549;28;20228;-75
2022/12/10 11:32:23;;;;;;;43.07;16.40;;;1.50;99.90;;;;;;4993510;28;20197;-77
2022/12/10 11:35:19;;;;;;;42.47;16.07;;;1.50;99.90;;;;;;4991854;28;20239;-75
2022/12/10 11:38:09;;;;;;;43.90;17.07;;;1.70;99.90;;;;;;4993415;28;20201;-74
2022/12/10 11:41:01;;;;;;;47.13;17.27;;;1.70;99.90;;;;;;4975654;28;20200;-73
2022/12/10 11:43:34;;;;;;;46.47;16.57;;;1.70;99.90;;;;;;4987448;28;20197;-75
2022/12/10 11:46:30;;;;;;;48.07;17.77;;;1.60;99.90;;;;;;4991888;28;20200;-76
2022/12/10 11:49:24;;;;;;;42.13;15.87;;;1.60;99.90;;;;;;4998247;28;20244;-76
2022/12/10 11:52:31;;;;;;;44.50;17.33;;;1.50;99.90;;;;;;4989497;28;20250;-74
2022/12/10 11:55:26;;;;;;;47.43;17.70;;;1.50;99.90;;;;;;4971423;28;20561;-75
2022/12/10 11:58:31;;;;;;;48.37;18.00;;;1.50;99.90;;;;;;4981402;28;20188;-77
2022/12/10 12:01:33;;;;;;;46.17;17.57;;;1.50;99.90;;;;;;5004674;28;20203;-75
2022/12/10 12:04:00;;;;;;;40.33;16.17;;;1.50;99.90;;;;;;5005105;28;20210;-74
2022/12/10 12:06:36;;;;;;;46.20;17.23;;;1.50;99.90;;;;;;4985447;28;20197;-77
2022/12/10 12:09:24;;;;;;;41.57;17.30;;;1.50;99.90;;;;;;5004274;28;20226;-76
2022/12/10 12:12:21;;;;;;;40.97;16.33;;;1.50;99.90;;;;;;4991831;28;20213;-75
2022/12/10 12:15:03;;;;;;;39.20;15.77;;;1.50;99.90;;;;;;5002880;28;20311;-76
2022/12/10 12:17:51;;;;;;;43.37;16.47;;;1.60;99.90;;;;;;4984079;28;20193;-76
2022/12/10 12:20:28;;;;;;;44.47;17.17;;;1.50;99.90;;;;;;4988019;28;20197;-77
2022/12/10 12:23:39;;;;;;;46.40;16.23;;;1.50;99.90;;;;;;5003219;28;20716;-76
2022/12/10 12:26:16;;;;;;;51.33;18.13;;;1.50;99.90;;;;;;4933880;29;20206;-78
2022/12/10 12:28:57;;;;;;;57.83;19.57;;;1.50;99.90;;;;;;4914707;29;20232;-76
2022/12/10 12:31:35;;;;;;;53.47;19.03;;;1.50;99.90;;;;;;4919077;29;20226;-75
2022/12/10 12:34:20;;;;;;;66.33;20.60;;;1.50;99.90;;;;;;4919790;29;20640;-77
2022/12/10 12:36:48;;;;;;;61.70;19.20;;;1.40;99.90;;;;;;4919542;29;20259;-74
2022/12/10 12:39:38;;;;;;;62.57;20.60;;;1.40;99.90;;;;;;4935761;29;20254;-76
2022/12/10 12:42:20;;;;;;;59.50;19.70;;;1.30;99.90;;;;;;4918678;29;20207;-76
2022/12/10 12:45:08;;;;;;;59.33;18.73;;;1.30;99.90;;;;;;4929482;29;20370;-77
2022/12/10 12:48:17;;;;;;;60.50;20.43;;;1.30;99.90;;;;;;4919301;29;20214;-74
2022/12/10 12:50:55;;;;;;;58.63;19.17;;;1.40;99.90;;;;;;4863403;29;20256;-75
2022/12/10 12:53:23;;;;;;;59.60;18.50;;;1.40;99.90;;;;;;4872321;29;20237;-78
2022/12/10 12:55:55;;;;;;;55.60;19.13;;;1.40;99.90;;;;;;4879030;29;20270;-74
2022/12/10 12:58:36;;;;;;;56.53;20.37;;;1.50;99.90;;;;;;4876925;29;20231;-75
2022/12/10 13:01:34;;;;;;;53.53;18.07;;;1.40;99.90;;;;;;4870602;29;20295;-80
2022/12/10 13:04:19;;;;;;;56.73;20.50;;;1.40;99.90;;;;;;4917143;29;20285;-78
2022/12/10 13:07:13;;;;;;;53.80;18.83;;;1.50;99.90;;;;;;4932869;29;20199;-78
2022/12/10 13:10:10;;;;;;;55.13;18.23;;;1.50;99.90;;;;;;4916122;29;20227;-78
2022/12/10 13:12:48;;;;;;;56.30;18.03;;;1.40;99.90;;;;;;4915998;29;20204;-78